Time;durP1;ratioP1;P1;durP2;ratioP2;P2;SDS_P1;SDS_P2;PMS_P1;PMS_P2;Temp;Humidity;BMP_temperature;BMP_pressure;BME280_temperature;BME280_humidity;BME280_pressure;Samples;Min_cycle;Max_cycle;Signal;HPM_P1;HPM_P2
2024/04/09 00:09:20;;;;;;;8.40;4.67;;;18.70;99.90;;;;;;5313954;26;20733;-66
2024/04/09 00:11:47;;;;;;;6.63;4.73;;;18.90;99.90;;;;;;5309175;26;20873;-67
2024/04/09 00:14:18;;;;;;;19.73;5.10;;;18.90;99.90;;;;;;5318665;26;20891;-67
2024/04/09 00:16:44;;;;;;;13.10;6.40;;;18.90;99.90;;;;;;5316213;26;20979;-67
2024/04/09 00:19:14;;;;;;;10.80;5.33;;;18.80;99.90;;;;;;5319451;26;20494;-67
2024/04/09 00:21:42;;;;;;;9.03;3.50;;;18.80;99.90;;;;;;5315861;26;20246;-67
2024/04/09 00:24:10;;;;;;;4.63;3.10;;;18.80;99.90;;;;;;5318090;26;20467;-67
2024/04/09 00:26:39;;;;;;;11.10;3.53;;;18.70;99.90;;;;;;5316144;26;21112;-67
2024/04/09 00:29:07;;;;;;;20.93;4.83;;;18.60;99.90;;;;;;5315548;26;20578;-67
2024/04/09 00:31:33;;;;;;;7.83;5.37;;;18.70;99.90;;;;;;5320668;26;20556;-67
2024/04/09 00:34:02;;;;;;;11.27;4.50;;;18.70;99.90;;;;;;5323349;26;20941;-67
2024/04/09 00:36:28;;;;;;;14.57;4.60;;;18.70;99.90;;;;;;5307511;26;20248;-67
2024/04/09 00:39:00;;;;;;;8.80;4.33;;;18.60;99.90;;;;;;5315721;26;20600;-67
2024/04/09 00:41:26;;;;;;;11.93;4.43;;;18.60;99.90;;;;;;5303870;26;20559;-68
2024/04/09 00:43:57;;;;;;;18.57;4.93;;;18.70;99.90;;;;;;5316636;26;22669;-67
2024/04/09 00:46:23;;;;;;;12.30;5.43;;;18.70;99.90;;;;;;5313810;26;20542;-67
2024/04/09 00:48:54;;;;;;;7.30;3.43;;;18.70;99.90;;;;;;5312518;26;20520;-67
2024/04/09 00:51:19;;;;;;;7.10;4.77;;;18.60;99.90;;;;;;5311997;26;20305;-67
2024/04/09 00:53:52;;;;;;;5.93;3.87;;;18.70;99.90;;;;;;5318207;26;20559;-67
2024/04/09 00:56:18;;;;;;;7.83;4.90;;;18.60;99.90;;;;;;5314895;26;20471;-67
2024/04/09 00:58:49;;;;;;;11.73;3.60;;;18.40;99.90;;;;;;5324335;26;20476;-67
2024/04/09 01:01:18;;;;;;;9.63;4.60;;;18.30;99.90;;;;;;5311566;26;20499;-67
2024/04/09 01:03:48;;;;;;;9.93;4.67;;;18.40;99.90;;;;;;5308410;26;20499;-67
2024/04/09 01:06:14;;;;;;;10.93;3.73;;;18.30;99.90;;;;;;5306015;26;20490;-67
2024/04/09 01:08:43;;;;;;;12.77;4.73;;;18.30;99.90;;;;;;5309265;26;20519;-67
2024/04/09 01:11:09;;;;;;;6.53;4.87;;;18.40;99.90;;;;;;5310384;26;20585;-67
2024/04/09 01:13:41;;;;;;;8.40;3.70;;;18.40;99.90;;;;;;5316369;26;20469;-66
2024/04/09 01:16:08;;;;;;;5.93;5.37;;;18.40;99.90;;;;;;5313735;26;21048;-67
2024/04/09 01:18:39;;;;;;;12.40;4.07;;;18.40;99.90;;;;;;5303796;26;20570;-67
2024/04/09 01:21:05;;;;;;;8.60;4.23;;;18.30;99.90;;;;;;5310352;26;20600;-67
2024/04/09 01:23:36;;;;;;;8.40;4.93;;;18.20;99.90;;;;;;5312696;26;20596;-66
2024/04/09 01:26:02;;;;;;;7.30;3.27;;;18.20;99.90;;;;;;5319348;26;20548;-67
2024/04/09 01:28:31;;;;;;;7.90;3.60;;;18.20;99.90;;;;;;5303360;26;21062;-67
2024/04/09 01:30:57;;;;;;;10.13;3.47;;;18.20;99.90;;;;;;5309451;26;20477;-67
2024/04/09 01:33:26;;;;;;;10.20;3.20;;;18.40;99.90;;;;;;5311697;26;21163;-66
2024/04/09 01:35:52;;;;;;;9.50;3.60;;;18.50;99.90;;;;;;5319832;26;20244;-67
2024/04/09 01:38:20;;;;;;;9.10;3.77;;;18.50;99.90;;;;;;5313318;26;21056;-66
2024/04/09 01:40:49;;;;;;;9.73;4.00;;;18.50;99.90;;;;;;5315678;26;20249;-67
2024/04/09 01:43:18;;;;;;;9.37;4.00;;;18.50;99.90;;;;;;5313662;26;20483;-67
2024/04/09 01:45:44;;;;;;;9.93;3.23;;;18.50;99.90;;;;;;5318022;26;20577;-66
2024/04/09 01:48:12;;;;;;;11.80;3.57;;;18.40;99.90;;;;;;5310653;26;20484;-66
2024/04/09 01:50:38;;;;;;;3.87;3.03;;;18.40;99.90;;;;;;5313446;26;20296;-67
2024/04/09 01:53:07;;;;;;;8.23;3.67;;;18.30;99.90;;;;;;5294923;26;21131;-67
2024/04/09 01:55:33;;;;;;;11.47;3.10;;;18.30;99.90;;;;;;5323824;26;20513;-67
2024/04/09 01:58:04;;;;;;;22.73;3.30;;;18.30;99.90;;;;;;5315251;26;20467;-66
2024/04/09 02:00:30;;;;;;;6.30;3.10;;;18.30;99.90;;;;;;5317893;26;20275;-66
2024/04/09 02:03:01;;;;;;;8.20;3.27;;;18.20;99.90;;;;;;5307554;26;21072;-67
2024/04/09 02:05:27;;;;;;;12.43;4.23;;;18.20;99.90;;;;;;5321413;26;20459;-67
2024/04/09 02:07:55;;;;;;;6.30;2.70;;;18.10;99.90;;;;;;5309451;26;20471;-66
2024/04/09 02:10:21;;;;;;;5.93;2.40;;;18.10;99.90;;;;;;5309595;26;20487;-67
2024/04/09 02:12:50;;;;;;;12.13;4.40;;;18.00;99.90;;;;;;5309135;26;20594;-66
2024/04/09 02:15:19;;;;;;;10.00;2.80;;;18.00;99.90;;;;;;5320755;26;20284;-67
2024/04/09 02:17:47;;;;;;;20.33;4.10;;;18.00;99.90;;;;;;5311518;26;20531;-67
2024/04/09 02:20:13;;;;;;;10.43;3.20;;;17.90;99.90;;;;;;5311293;26;20601;-67
2024/04/09 02:22:42;;;;;;;6.00;2.00;;;17.90;99.90;;;;;;5310506;26;21535;-67
2024/04/09 02:25:08;;;;;;;8.83;3.60;;;17.80;99.90;;;;;;5317799;26;20631;-67
2024/04/09 02:27:36;;;;;;;7.83;3.60;;;17.80;99.90;;;;;;5314515;26;20577;-67
2024/04/09 02:30:03;;;;;;;4.93;3.40;;;17.80;99.90;;;;;;5313077;26;20321;-66
2024/04/09 02:32:34;;;;;;;7.77;3.30;;;17.80;99.90;;;;;;5312250;26;20467;-66
2024/04/09 02:35:01;;;;;;;2.73;2.20;;;17.70;99.90;;;;;;5314656;26;21031;-66
2024/04/09 02:37:31;;;;;;;11.63;4.13;;;17.70;99.90;;;;;;5306762;26;20490;-67
2024/04/09 02:39:58;;;;;;;7.20;2.87;;;17.80;99.90;;;;;;5314010;26;20471;-67
2024/04/09 02:42:27;;;;;;;4.90;3.10;;;17.80;99.90;;;;;;5311133;26;20529;-67
2024/04/09 02:44:53;;;;;;;4.40;2.57;;;17.70;99.90;;;;;;5318291;26;20539;-66
2024/04/09 02:47:22;;;;;;;9.93;3.60;;;17.60;99.90;;;;;;5325017;26;20509;-67
2024/04/09 02:49:52;;;;;;;5.67;2.83;;;17.50;99.90;;;;;;5317495;26;20890;-66
2024/04/09 02:52:21;;;;;;;7.23;3.67;;;17.60;99.90;;;;;;5314202;26;20523;-66
2024/04/09 02:54:47;;;;;;;8.30;3.97;;;17.60;99.90;;;;;;5322788;26;20487;-66
2024/04/09 02:57:15;;;;;;;5.37;3.00;;;17.60;99.90;;;;;;5320083;26;20494;-67
2024/04/09 02:59:41;;;;;;;10.53;3.00;;;17.50;99.90;;;;;;5321318;26;20286;-66
2024/04/09 03:02:10;;;;;;;12.10;4.20;;;17.40;99.90;;;;;;5323088;26;20471;-68
2024/04/09 03:04:35;;;;;;;5.80;2.93;;;17.50;99.90;;;;;;5322193;26;21154;-69
2024/04/09 03:07:07;;;;;;;4.43;2.60;;;17.40;99.90;;;;;;5319227;26;20523;-68
2024/04/09 03:09:32;;;;;;;10.63;2.77;;;17.40;99.90;;;;;;5318981;26;20300;-68
2024/04/09 03:12:01;;;;;;;12.63;3.70;;;17.40;99.90;;;;;;5317700;26;20471;-68
2024/04/09 03:14:28;;;;;;;7.80;2.73;;;17.30;99.90;;;;;;5316990;26;20245;-67
2024/04/09 03:16:56;;;;;;;3.93;2.20;;;17.20;99.90;;;;;;5318948;26;20893;-67
2024/04/09 03:19:22;;;;;;;9.17;3.07;;;17.30;99.90;;;;;;5321116;26;21814;-67
2024/04/09 03:21:51;;;;;;;10.57;3.67;;;17.40;99.90;;;;;;5321030;26;20596;-68
2024/04/09 03:24:19;;;;;;;9.50;2.77;;;17.30;99.90;;;;;;5313915;26;20288;-67
2024/04/09 03:26:48;;;;;;;8.13;2.77;;;17.30;99.90;;;;;;5323221;26;20808;-68
2024/04/09 03:29:14;;;;;;;11.23;2.83;;;17.20;99.90;;;;;;5317326;26;20586;-68
2024/04/09 03:31:43;;;;;;;5.00;3.10;;;17.20;99.90;;;;;;5321292;26;21304;-68
2024/04/09 03:34:08;;;;;;;7.27;4.00;;;17.20;99.90;;;;;;5326498;26;20560;-66
2024/04/09 03:36:37;;;;;;;4.30;2.80;;;17.10;99.90;;;;;;5324273;26;20467;-67
2024/04/09 03:39:07;;;;;;;5.93;3.13;;;17.20;99.90;;;;;;5313705;26;20471;-68
2024/04/09 03:41:35;;;;;;;17.43;3.50;;;17.20;99.90;;;;;;5317232;26;20529;-68
2024/04/09 03:44:04;;;;;;;6.63;3.73;;;17.10;99.90;;;;;;5325039;26;20483;-68
2024/04/09 03:46:30;;;;;;;5.53;3.00;;;17.20;99.90;;;;;;5331333;26;22946;-68
2024/04/09 03:48:58;;;;;;;10.43;3.13;;;17.10;99.90;;;;;;5330465;26;20537;-68
2024/04/09 03:51:24;;;;;;;10.20;3.20;;;17.10;99.90;;;;;;5318453;26;20319;-68
2024/04/09 03:53:53;;;;;;;11.03;3.63;;;17.10;99.90;;;;;;5307250;26;20521;-67
2024/04/09 03:56:21;;;;;;;13.73;2.97;;;17.20;99.90;;;;;;5324951;26;20478;-67
2024/04/09 03:58:52;;;;;;;5.17;4.00;;;17.20;99.90;;;;;;5309283;26;20523;-68
2024/04/09 04:01:18;;;;;;;15.60;3.10;;;17.10;99.90;;;;;;5314091;26;20519;-68
2024/04/09 04:03:48;;;;;;;9.20;3.13;;;16.90;99.90;;;;;;5308491;26;20486;-68
2024/04/09 04:06:14;;;;;;;10.50;2.77;;;17.00;99.90;;;;;;5317313;26;21012;-68
2024/04/09 04:08:44;;;;;;;12.50;3.20;;;17.10;99.90;;;;;;5317905;26;20472;-68
2024/04/09 04:11:12;;;;;;;6.53;2.70;;;17.10;99.90;;;;;;5311849;26;20484;-68
2024/04/09 04:13:42;;;;;;;10.50;3.67;;;17.20;99.90;;;;;;5319225;26;20574;-68
2024/04/09 04:16:12;;;;;;;13.43;3.17;;;17.20;99.90;;;;;;5324681;26;20479;-68
2024/04/09 04:18:42;;;;;;;4.90;2.07;;;17.20;99.90;;;;;;5312418;26;20526;-68
2024/04/09 04:21:12;;;;;;;5.13;2.87;;;17.30;99.90;;;;;;5315164;26;20491;-68
2024/04/09 04:23:41;;;;;;;19.83;2.90;;;17.30;99.90;;;;;;5311740;26;20535;-68
2024/04/09 04:26:08;;;;;;;6.80;2.70;;;17.30;99.90;;;;;;5321159;26;20530;-68
2024/04/09 04:28:38;;;;;;;21.43;4.10;;;17.30;99.90;;;;;;5326617;26;20585;-67
2024/04/09 04:31:05;;;;;;;14.87;4.23;;;17.30;99.90;;;;;;5315669;26;20534;-67
2024/04/09 04:33:36;;;;;;;6.03;3.00;;;17.30;99.90;;;;;;5315108;26;20557;-67
2024/04/09 04:36:03;;;;;;;24.17;3.37;;;17.30;99.90;;;;;;5315003;26;20501;-67
2024/04/09 04:38:31;;;;;;;8.80;2.77;;;17.30;99.90;;;;;;5314201;26;20479;-67
2024/04/09 04:40:58;;;;;;;4.50;2.97;;;17.20;99.90;;;;;;5307230;26;20485;-67
2024/04/09 04:43:26;;;;;;;11.00;2.80;;;17.10;99.90;;;;;;5304187;26;21176;-67
2024/04/09 04:45:54;;;;;;;8.10;2.73;;;17.10;99.90;;;;;;5315628;26;20523;-68
2024/04/09 04:48:23;;;;;;;7.37;2.90;;;17.00;99.90;;;;;;5296431;26;20590;-67
2024/04/09 04:50:52;;;;;;;2.63;1.90;;;17.10;99.90;;;;;;5317053;26;20653;-68
2024/04/09 04:53:21;;;;;;;7.10;2.50;;;17.20;99.90;;;;;;5323093;26;20479;-67
2024/04/09 04:55:49;;;;;;;3.67;2.77;;;17.20;99.90;;;;;;5320487;26;20614;-67
2024/04/09 04:58:19;;;;;;;7.87;3.20;;;17.20;99.90;;;;;;5329092;26;20782;-67
2024/04/09 05:00:45;;;;;;;11.73;2.80;;;17.10;99.90;;;;;;5325741;26;21099;-67
2024/04/09 05:03:14;;;;;;;5.63;2.57;;;17.10;99.90;;;;;;5320121;26;20566;-67
2024/04/09 05:05:40;;;;;;;6.10;2.70;;;17.10;99.90;;;;;;5326135;26;20569;-67
2024/04/09 05:08:11;;;;;;;13.07;4.93;;;17.10;99.90;;;;;;5329367;26;20543;-68
2024/04/09 05:10:38;;;;;;;5.07;1.60;;;17.00;99.90;;;;;;5312911;26;20535;-68
2024/04/09 05:13:06;;;;;;;3.63;2.00;;;17.10;99.90;;;;;;5325865;26;20480;-68
2024/04/09 05:15:32;;;;;;;2.53;1.77;;;17.00;99.90;;;;;;5307683;26;20565;-67
2024/04/09 05:18:04;;;;;;;2.50;1.90;;;16.90;99.90;;;;;;5311766;26;20488;-67
2024/04/09 05:20:30;;;;;;;3.93;2.07;;;16.90;99.90;;;;;;5324678;26;21164;-66
2024/04/09 05:22:59;;;;;;;3.17;1.80;;;16.90;99.90;;;;;;5316398;26;20480;-66
2024/04/09 05:25:27;;;;;;;10.60;2.23;;;16.90;99.90;;;;;;5325508;26;21308;-67
2024/04/09 05:27:56;;;;;;;7.33;2.30;;;16.90;99.90;;;;;;5318911;26;20472;-67
2024/04/09 05:30:25;;;;;;;10.27;3.40;;;16.80;99.90;;;;;;5319445;26;20487;-66
2024/04/09 05:32:53;;;;;;;8.60;1.70;;;16.70;99.90;;;;;;5320101;26;21857;-67
2024/04/09 05:35:19;;;;;;;3.80;1.90;;;16.50;99.90;;;;;;5318431;26;21040;-66
2024/04/09 05:37:48;;;;;;;3.17;2.97;;;16.40;99.90;;;;;;5325725;26;20833;-67
2024/04/09 05:40:14;;;;;;;3.20;1.43;;;16.30;99.90;;;;;;5322351;26;20532;-67
2024/04/09 05:42:46;;;;;;;2.60;1.20;;;16.30;99.90;;;;;;5318052;26;20925;-67
2024/04/09 05:45:13;;;;;;;6.57;1.50;;;16.40;99.90;;;;;;5323689;26;20488;-67
2024/04/09 05:47:42;;;;;;;3.47;1.37;;;16.30;99.90;;;;;;5318415;26;20626;-67
2024/04/09 05:50:08;;;;;;;3.10;2.13;;;16.20;99.90;;;;;;5322800;26;20554;-67
2024/04/09 05:52:36;;;;;;;4.50;1.97;;;16.20;99.90;;;;;;5310734;26;20730;-68
2024/04/09 05:55:03;;;;;;;2.50;1.97;;;16.20;99.90;;;;;;5319337;26;20600;-67
2024/04/09 05:57:36;;;;;;;4.87;1.90;;;16.20;99.90;;;;;;5321828;26;20464;-67
2024/04/09 06:00:07;;;;;;;1.93;1.40;;;16.20;99.90;;;;;;5319178;26;20525;-68
2024/04/09 06:02:36;;;;;;;1.77;1.47;;;16.20;99.90;;;;;;5311306;26;20487;-68
2024/04/09 06:05:02;;;;;;;4.57;2.40;;;16.20;99.90;;;;;;5312011;26;20480;-66
2024/04/09 06:07:31;;;;;;;5.57;2.07;;;16.20;99.90;;;;;;5318615;26;20471;-67
2024/04/09 06:09:57;;;;;;;8.10;1.50;;;16.10;99.90;;;;;;5315787;26;20615;-67
2024/04/09 06:12:26;;;;;;;3.00;2.00;;;16.20;99.90;;;;;;5296501;26;20549;-67
2024/04/09 06:14:53;;;;;;;4.10;1.77;;;16.10;99.90;;;;;;5316521;26;20554;-67
2024/04/09 06:17:24;;;;;;;11.23;2.33;;;16.10;99.90;;;;;;5323748;26;20486;-67
2024/04/09 06:19:50;;;;;;;2.03;1.53;;;16.10;99.90;;;;;;5327153;26;20478;-67
2024/04/09 06:22:18;;;;;;;1.93;1.83;;;16.30;99.90;;;;;;5330687;26;20483;-67
2024/04/09 06:24:47;;;;;;;4.73;2.80;;;16.30;99.90;;;;;;5333807;26;20483;-67
2024/04/09 06:27:16;;;;;;;3.43;2.40;;;16.20;99.90;;;;;;5330056;26;20559;-67
2024/04/09 06:29:42;;;;;;;2.97;2.00;;;16.30;99.90;;;;;;5336751;26;20479;-67
2024/04/09 06:32:11;;;;;;;4.57;2.00;;;16.30;99.90;;;;;;5322994;26;20483;-67
2024/04/09 06:34:39;;;;;;;5.57;3.20;;;16.20;99.90;;;;;;5326274;26;20819;-67
2024/04/09 06:37:08;;;;;;;2.23;1.90;;;16.10;99.90;;;;;;5332957;26;20945;-67
2024/04/09 06:39:33;;;;;;;6.53;2.63;;;16.10;99.90;;;;;;5337468;26;20530;-67
2024/04/09 06:42:03;;;;;;;2.10;1.60;;;16.10;99.90;;;;;;5337508;26;20485;-67
2024/04/09 06:44:29;;;;;;;2.67;2.00;;;16.10;99.90;;;;;;5322378;26;20232;-67
2024/04/09 06:46:57;;;;;;;5.73;2.80;;;16.10;99.90;;;;;;5328432;26;20498;-68
2024/04/09 06:49:24;;;;;;;6.33;1.50;;;16.10;99.90;;;;;;5333099;26;20620;-67
2024/04/09 06:51:55;;;;;;;1.20;0.80;;;16.10;99.90;;;;;;5334209;26;20526;-67
2024/04/09 06:54:21;;;;;;;1.00;0.67;;;16.30;99.90;;;;;;5332549;26;20538;-67
2024/04/09 06:56:50;;;;;;;4.23;2.03;;;16.30;99.90;;;;;;5343202;26;20470;-66
2024/04/09 06:59:16;;;;;;;6.47;3.33;;;16.30;99.90;;;;;;5334389;26;20535;-67
2024/04/09 07:01:44;;;;;;;5.20;2.63;;;16.30;99.90;;;;;;5338337;26;20745;-67
2024/04/09 07:04:10;;;;;;;3.30;2.37;;;16.30;99.90;;;;;;5330923;26;21031;-68
2024/04/09 07:06:39;;;;;;;3.00;2.00;;;16.00;99.90;;;;;;5342763;26;20466;-67
2024/04/09 07:09:07;;;;;;;1.43;1.30;;;15.40;99.90;;;;;;5329912;26;20244;-67
2024/04/09 07:11:36;;;;;;;2.97;2.33;;;15.20;99.90;;;;;;5333557;26;20483;-66
2024/04/09 07:14:02;;;;;;;1.40;1.27;;;15.00;99.90;;;;;;5327391;26;20539;-67
2024/04/09 07:16:34;;;;;;;2.10;1.50;;;14.90;99.90;;;;;;5329078;26;20455;-67
2024/04/09 07:19:00;;;;;;;1.90;1.40;;;14.90;99.90;;;;;;5334636;26;20745;-67
2024/04/09 07:21:28;;;;;;;1.73;1.60;;;14.90;99.90;;;;;;5330003;26;20656;-67
2024/04/09 07:23:54;;;;;;;1.80;1.60;;;14.90;99.90;;;;;;5329464;26;20284;-67
2024/04/09 07:26:25;;;;;;;3.83;2.13;;;14.70;99.90;;;;;;5330370;26;20533;-67
2024/04/09 07:28:51;;;;;;;2.43;2.23;;;14.50;99.90;;;;;;5329443;26;20811;-67
2024/04/09 07:31:21;;;;;;;2.70;1.70;;;14.30;99.90;;;;;;5324183;26;20487;-67
2024/04/09 07:33:47;;;;;;;4.47;1.83;;;14.10;99.90;;;;;;5332498;26;20351;-67
2024/04/09 07:36:15;;;;;;;2.27;1.60;;;13.90;99.90;;;;;;5328613;26;20549;-67
2024/04/09 07:38:41;;;;;;;5.93;2.27;;;13.80;99.90;;;;;;5330588;26;20594;-67
2024/04/09 07:41:11;;;;;;;3.20;2.07;;;13.80;99.90;;;;;;5329691;26;20507;-67
2024/04/09 07:43:39;;;;;;;1.77;1.50;;;13.80;99.90;;;;;;5331163;26;20596;-67
2024/04/09 07:46:08;;;;;;;1.00;0.60;;;13.90;99.90;;;;;;5315977;26;20662;-67
2024/04/09 07:48:34;;;;;;;1.43;1.33;;;13.80;99.90;;;;;;5323198;26;20480;-67
2024/04/09 07:51:03;;;;;;;1.00;0.90;;;13.70;99.90;;;;;;5328797;26;20973;-67
2024/04/09 07:53:29;;;;;;;0.90;0.70;;;13.60;99.90;;;;;;5324515;26;20600;-67
2024/04/09 07:55:57;;;;;;;1.47;1.10;;;13.60;99.90;;;;;;5333455;26;20483;-67
2024/04/09 07:58:23;;;;;;;4.90;3.17;;;13.60;99.90;;;;;;5341398;26;20495;-67
2024/04/09 08:00:54;;;;;;;3.47;3.17;;;13.60;99.90;;;;;;5325301;26;20521;-67
2024/04/09 08:03:21;;;;;;;1.00;0.60;;;13.50;99.90;;;;;;5325041;26;21327;-67
2024/04/09 08:05:50;;;;;;;0.97;0.60;;;13.50;99.90;;;;;;5325511;26;20575;-67
2024/04/09 08:08:15;;;;;;;1.40;0.90;;;13.50;99.90;;;;;;5324685;26;20619;-67
2024/04/09 08:10:44;;;;;;;0.97;0.60;;;13.30;99.90;;;;;;5332281;26;20452;-68
2024/04/09 08:13:10;;;;;;;1.00;0.70;;;13.30;99.90;;;;;;5326634;26;20300;-68
2024/04/09 08:15:39;;;;;;;1.23;0.90;;;13.30;99.90;;;;;;5329776;26;20899;-67
2024/04/09 08:18:08;;;;;;;1.00;0.60;;;13.00;99.90;;;;;;5331902;26;20488;-67
2024/04/09 08:20:37;;;;;;;1.00;0.70;;;12.70;99.90;;;;;;5331158;26;20618;-67
2024/04/09 08:23:04;;;;;;;0.97;0.60;;;12.70;99.90;;;;;;5322906;26;20554;-67
2024/04/09 08:25:34;;;;;;;0.90;0.60;;;12.70;99.90;;;;;;5326339;26;21042;-67
2024/04/09 08:28:01;;;;;;;3.83;0.93;;;13.00;99.90;;;;;;5330640;26;20542;-67
2024/04/09 08:30:30;;;;;;;3.20;1.00;;;13.10;99.90;;;;;;5333438;26;21113;-68
2024/04/09 08:32:56;;;;;;;1.77;1.10;;;13.20;99.90;;;;;;5325672;26;20535;-67
2024/04/09 08:35:27;;;;;;;1.10;0.90;;;13.30;99.90;;;;;;5330791;26;20500;-67
2024/04/09 08:37:53;;;;;;;1.20;0.70;;;13.50;99.90;;;;;;5328969;26;20245;-67
2024/04/09 08:40:24;;;;;;;1.30;0.77;;;13.30;99.90;;;;;;5339333;26;20479;-67
2024/04/09 08:42:52;;;;;;;5.60;0.80;;;13.40;99.90;;;;;;5344682;26;20241;-66
2024/04/09 08:45:21;;;;;;;1.80;1.30;;;13.40;99.90;;;;;;5335587;26;20483;-69
2024/04/09 08:47:48;;;;;;;2.67;1.20;;;13.30;99.90;;;;;;5337525;26;20606;-67
2024/04/09 08:50:16;;;;;;;3.63;1.10;;;13.30;99.90;;;;;;5336282;26;20595;-67
2024/04/09 08:52:45;;;;;;;1.20;0.97;;;13.40;99.90;;;;;;5327018;26;20569;-68
2024/04/09 08:55:15;;;;;;;1.40;1.00;;;13.50;99.90;;;;;;5332588;26;21000;-67
2024/04/09 08:57:41;;;;;;;1.63;1.27;;;13.60;99.90;;;;;;5325282;26;20512;-68
2024/04/09 09:00:10;;;;;;;1.83;1.27;;;13.60;99.90;;;;;;5321233;26;20471;-68
2024/04/09 09:02:36;;;;;;;2.57;1.30;;;13.70;99.90;;;;;;5327589;26;20795;-68
2024/04/09 09:05:06;;;;;;;1.30;1.00;;;13.70;99.90;;;;;;5326529;26;20522;-68
2024/04/09 09:07:32;;;;;;;1.40;1.00;;;13.60;99.90;;;;;;5333819;26;20475;-68
2024/04/09 09:10:08;;;;;;;2.33;1.27;;;13.50;99.90;;;;;;5348843;26;20534;-67
2024/04/09 09:12:35;;;;;;;2.50;1.53;;;13.30;99.90;;;;;;5329397;26;21002;-68
2024/04/09 09:15:04;;;;;;;1.97;1.23;;;13.30;99.90;;;;;;5319625;26;20479;-67
2024/04/09 09:17:31;;;;;;;4.27;1.27;;;13.30;99.90;;;;;;5324378;26;20480;-67
2024/04/09 09:20:00;;;;;;;2.53;1.33;;;13.40;99.90;;;;;;5328407;26;20494;-67
2024/04/09 09:22:29;;;;;;;2.17;1.63;;;13.50;99.90;;;;;;5323047;26;20590;-67
2024/04/09 09:25:00;;;;;;;1.70;1.07;;;13.50;99.90;;;;;;5332060;26;20832;-67
2024/04/09 09:27:28;;;;;;;1.87;1.20;;;13.60;99.90;;;;;;5323996;26;20648;-67
2024/04/09 09:29:57;;;;;;;7.60;1.40;;;13.90;99.90;;;;;;5336804;26;20522;-67
2024/04/09 09:32:23;;;;;;;4.80;1.53;;;14.10;99.90;;;;;;5330709;26;21081;-67
2024/04/09 09:34:55;;;;;;;2.07;1.10;;;14.20;99.90;;;;;;5333327;26;20472;-67
2024/04/09 09:37:21;;;;;;;2.17;1.10;;;14.30;99.90;;;;;;5317032;26;20471;-67
2024/04/09 09:39:53;;;;;;;2.20;1.23;;;14.30;99.90;;;;;;5323389;26;20543;-67
2024/04/09 09:42:21;;;;;;;1.53;1.00;;;14.40;99.90;;;;;;5330555;26;20486;-67
2024/04/09 09:44:54;;;;;;;2.40;1.53;;;14.10;99.90;;;;;;5335525;26;20447;-67
2024/04/09 09:47:21;;;;;;;1.63;1.20;;;13.80;99.90;;;;;;5331735;26;20966;-67
2024/04/09 09:49:50;;;;;;;1.63;0.93;;;13.70;99.90;;;;;;5330323;26;20531;-67
2024/04/09 09:52:16;;;;;;;2.27;1.40;;;13.70;99.90;;;;;;5330010;26;20451;-67
2024/04/09 09:54:45;;;;;;;1.10;0.80;;;13.70;99.90;;;;;;5335354;26;20475;-67
2024/04/09 09:57:15;;;;;;;2.03;1.10;;;13.60;99.90;;;;;;5344504;26;20479;-67
2024/04/09 09:59:48;;;;;;;1.93;1.20;;;13.60;99.90;;;;;;5319361;26;20564;-67
2024/04/09 10:02:18;;;;;;;18.47;2.00;;;13.60;99.90;;;;;;5321379;26;20586;-67
2024/04/09 10:04:47;;;;;;;4.07;1.87;;;13.60;99.90;;;;;;5325178;26;20456;-67
2024/04/09 10:07:13;;;;;;;1.20;1.00;;;13.60;99.90;;;;;;5339884;26;20554;-67
2024/04/09 10:09:46;;;;;;;2.53;1.37;;;13.60;99.90;;;;;;5332455;26;20639;-67
2024/04/09 10:12:22;;;;;;;1.67;1.33;;;13.60;99.90;;;;;;5337887;26;20504;-67
2024/04/09 10:15:00;;;;;;;1.50;1.40;;;13.60;99.90;;;;;;5326433;26;20534;-67
2024/04/09 10:17:46;;;;;;;2.60;2.40;;;13.50;99.90;;;;;;5337776;26;20884;-67
2024/04/09 10:20:20;;;;;;;1.10;0.93;;;13.40;99.90;;;;;;5331183;26;20593;-67
2024/04/09 10:22:47;;;;;;;1.10;0.90;;;13.60;99.90;;;;;;5333314;26;20503;-68
2024/04/09 10:25:20;;;;;;;1.30;1.10;;;13.90;99.90;;;;;;5329858;26;20535;-68
2024/04/09 10:27:46;;;;;;;1.30;1.10;;;14.30;99.90;;;;;;5334291;26;20653;-68
2024/04/09 10:30:17;;;;;;;4.80;1.20;;;14.60;99.90;;;;;;5328881;26;20463;-66
2024/04/09 10:32:56;;;;;;;4.03;1.10;;;15.10;99.90;;;;;;5318429;26;20941;-68
2024/04/09 10:35:25;;;;;;;1.40;0.90;;;15.50;99.90;;;;;;5335629;26;20599;-67
2024/04/09 10:37:52;;;;;;;2.37;1.10;;;16.00;99.90;;;;;;5330228;26;20612;-69
2024/04/09 10:40:21;;;;;;;1.20;0.80;;;16.70;99.90;;;;;;5333035;26;21417;-68
2024/04/09 10:42:58;;;;;;;1.00;0.70;;;17.50;99.90;;;;;;5312409;26;20780;-70
2024/04/09 10:45:26;;;;;;;9.10;2.03;;;18.00;99.90;;;;;;5325458;26;21032;-69
2024/04/09 10:47:55;;;;;;;3.77;1.10;;;18.60;99.90;;;;;;5326078;26;21099;-68
2024/04/09 10:50:24;;;;;;;2.80;1.20;;;18.40;99.90;;;;;;5316386;26;20519;-68
2024/04/09 10:52:50;;;;;;;2.40;1.00;;;18.70;99.90;;;;;;5339790;26;21375;-67
2024/04/09 10:55:19;;;;;;;2.20;1.10;;;19.00;99.90;;;;;;5341950;26;20561;-67
2024/04/09 10:57:51;;;;;;;1.10;0.70;;;18.00;99.90;;;;;;5326835;26;20527;-68
2024/04/09 11:00:20;;;;;;;1.23;1.03;;;16.80;99.90;;;;;;5343903;26;20833;-68
2024/04/09 11:02:46;;;;;;;3.13;1.00;;;16.30;99.90;;;;;;5341401;26;20477;-68
2024/04/09 11:05:19;;;;;;;1.00;0.90;;;16.10;99.90;;;;;;5330465;26;20537;-68
2024/04/09 11:07:47;;;;;;;1.63;0.80;;;16.10;99.90;;;;;;5333585;26;20316;-69
2024/04/09 11:10:17;;;;;;;1.97;1.33;;;15.90;99.90;;;;;;5345393;26;20483;-68
2024/04/09 11:12:45;;;;;;;2.40;1.10;;;15.80;99.90;;;;;;5318417;26;20495;-68
2024/04/09 11:15:13;;;;;;;4.57;1.03;;;15.70;99.90;;;;;;5324455;26;20477;-68
2024/04/09 11:17:40;;;;;;;1.00;0.70;;;15.60;99.90;;;;;;5324413;26;20539;-68
2024/04/09 11:20:09;;;;;;;2.03;1.10;;;15.40;99.90;;;;;;5341036;26;20484;-68
2024/04/09 11:22:42;;;;;;;1.17;0.87;;;15.30;99.90;;;;;;5317757;26;20475;-67
2024/04/09 11:25:12;;;;;;;1.77;0.90;;;15.20;99.90;;;;;;5332464;26;20527;-68
2024/04/09 11:27:38;;;;;;;2.03;1.10;;;15.30;99.90;;;;;;5336453;26;20518;-68
2024/04/09 11:30:09;;;;;;;2.23;1.17;;;15.20;99.90;;;;;;5327509;26;20486;-67
2024/04/09 11:32:36;;;;;;;1.20;0.90;;;15.10;99.90;;;;;;5339156;26;20950;-67
2024/04/09 11:35:04;;;;;;;2.03;1.33;;;15.10;99.90;;;;;;5337558;26;20526;-67
2024/04/09 11:37:30;;;;;;;1.00;0.77;;;15.30;99.90;;;;;;5325599;26;20471;-67
2024/04/09 11:40:04;;;;;;;1.80;1.10;;;15.50;99.90;;;;;;5333824;26;20511;-67
2024/04/09 11:42:29;;;;;;;2.90;1.33;;;15.60;99.90;;;;;;5328755;26;20245;-67
2024/04/09 11:45:02;;;;;;;3.00;1.10;;;16.40;99.90;;;;;;5327231;26;20620;-67
2024/04/09 11:47:28;;;;;;;1.67;1.07;;;17.30;99.90;;;;;;5335306;26;20704;-66
2024/04/09 11:49:56;;;;;;;20.03;2.07;;;17.20;99.90;;;;;;5332617;26;20487;-66
2024/04/09 11:52:22;;;;;;;1.93;1.37;;;16.70;99.90;;;;;;5328742;26;20304;-67
2024/04/09 11:54:50;;;;;;;1.67;1.13;;;16.70;99.90;;;;;;5330165;26;20944;-67
2024/04/09 11:57:19;;;;;;;2.37;1.50;;;16.60;99.90;;;;;;5329280;26;20981;-66
2024/04/09 11:59:50;;;;;;;2.70;2.20;;;16.50;99.90;;;;;;5336815;26;21107;-66
2024/04/09 12:02:16;;;;;;;3.13;2.10;;;16.50;99.90;;;;;;5339067;26;20471;-67
2024/04/09 12:04:44;;;;;;;3.77;0.90;;;16.20;99.90;;;;;;5330872;26;20471;-67
2024/04/09 12:07:10;;;;;;;4.10;1.57;;;15.80;99.90;;;;;;5330584;26;20757;-67
2024/04/09 12:09:42;;;;;;;1.60;1.50;;;15.70;99.90;;;;;;5322600;26;20509;-67
2024/04/09 12:12:09;;;;;;;1.40;1.07;;;15.60;99.90;;;;;;5319355;26;20974;-68
2024/04/09 12:14:41;;;;;;;1.23;0.93;;;15.80;99.90;;;;;;5325312;26;21042;-69
2024/04/09 12:17:07;;;;;;;2.97;1.20;;;16.00;99.90;;;;;;5337411;26;20475;-67
2024/04/09 12:19:37;;;;;;;1.60;1.47;;;16.70;99.90;;;;;;5341168;26;20482;-67
2024/04/09 12:22:03;;;;;;;1.67;1.20;;;17.00;99.90;;;;;;5330897;26;20245;-66
2024/04/09 12:24:32;;;;;;;1.83;1.43;;;17.00;99.90;;;;;;5335569;26;20537;-67
2024/04/09 12:26:58;;;;;;;1.17;0.80;;;17.60;99.90;;;;;;5332728;26;20479;-67
2024/04/09 12:29:28;;;;;;;1.47;0.80;;;18.30;99.90;;;;;;5330554;26;20601;-67
2024/04/09 12:31:58;;;;;;;1.00;0.70;;;17.50;99.90;;;;;;5325713;26;20696;-67
2024/04/09 12:34:26;;;;;;;1.37;1.13;;;17.20;99.90;;;;;;5330370;26;20539;-68
2024/04/09 12:36:52;;;;;;;1.77;0.80;;;18.10;99.90;;;;;;5322905;26;20626;-68
2024/04/09 12:39:23;;;;;;;1.13;0.77;;;18.00;99.90;;;;;;5325390;26;20486;-67
2024/04/09 12:41:51;;;;;;;1.07;0.70;;;17.90;99.90;;;;;;5335978;26;20774;-68
2024/04/09 12:44:17;;;;;;;1.20;0.77;;;17.80;99.90;;;;;;5328210;26;20690;-67
2024/04/09 12:46:46;;;;;;;4.00;1.63;;;18.30;99.90;;;;;;5338803;26;20461;-68
2024/04/09 12:49:15;;;;;;;4.20;1.40;;;18.70;99.90;;;;;;5333747;26;20308;-67
2024/04/09 12:51:44;;;;;;;3.63;1.10;;;19.60;99.90;;;;;;5330693;26;20482;-69
2024/04/09 12:54:10;;;;;;;1.40;0.90;;;19.80;99.90;;;;;;5326107;26;20526;-67
2024/04/09 12:56:38;;;;;;;2.30;0.90;;;19.60;99.90;;;;;;5332117;26;21045;-67
2024/04/09 12:59:05;;;;;;;4.13;1.20;;;18.60;99.90;;;;;;5321474;26;20304;-67